CTV4330 WMKK-OEJN
Flight info
| Callsign | CTV4330 |
|---|---|
| Flight time | N/A |
| Altitude | 36000 |
| Route | PUGER1D PUGER DCT AVDIN DCT BAC DCT MEMAK DCT SADRI DCT XOKRO DCT BEBOK/N0475F380 DCT NUVTI DCT MML DCT DOGBU DCT VASTU DCT 15N069E DCT METIP DCT RIGLO DCT 18N057E DCT LONIV/N0470F400 DCT DAVLO DCT BOSUT |
| Aircraft | A339/H-SADE1E2E3GHIJ3J5M1P2RWXY/LB2D1 |
Departure
| Time | 2026-05-08 08:53 |
|---|---|
| Airport | Kuala Lumpur International Airport (WMKK) |
Arrival
| Time | N/A |
|---|---|
| Airport | King Abdulaziz International Airport (OEJN) |
| Time | Latitude | Longitude | Altitude | Speed | Heading |
|---|---|---|---|---|---|
| 2026-05-08 08:13 | 2.74965 | 101.71458 | 83 ft | 0 kts | 146° |
| 2026-05-08 08:36 | 2.74976 | 101.71450 | 83 ft | 2 kts | 146° |
| 2026-05-08 08:36 | 2.74989 | 101.71442 | 83 ft | 2 kts | 146° |
| 2026-05-08 08:36 | 2.75001 | 101.71433 | 83 ft | 2 kts | 145° |
| 2026-05-08 08:37 | 2.75013 | 101.71423 | 83 ft | 2 kts | 127° |
| 2026-05-08 08:37 | 2.75020 | 101.71411 | 83 ft | 2 kts | 114° |
| 2026-05-08 08:37 | 2.75026 | 101.71397 | 83 ft | 2 kts | 111° |
| 2026-05-08 08:37 | 2.75033 | 101.71384 | 83 ft | 2 kts | 132° |
| 2026-05-08 08:38 | 2.75044 | 101.71375 | 83 ft | 2 kts | 145° |
| 2026-05-08 08:38 | 2.75048 | 101.71371 | 83 ft | 0 kts | 148° |
| 2026-05-08 08:44 | 2.75045 | 101.71373 | 83 ft | 1 kts | 148° |
| 2026-05-08 08:44 | 2.75027 | 101.71389 | 83 ft | 4 kts | 123° |
| 2026-05-08 08:45 | 2.75034 | 101.71429 | 83 ft | 8 kts | 60° |
| 2026-05-08 08:45 | 2.75072 | 101.71491 | 83 ft | 11 kts | 55° |
| 2026-05-08 08:45 | 2.75122 | 101.71564 | 83 ft | 13 kts | 56° |
| 2026-05-08 08:45 | 2.75183 | 101.71616 | 83 ft | 10 kts | 3° |
| 2026-05-08 08:46 | 2.75253 | 101.71584 | 83 ft | 11 kts | 327° |
| 2026-05-08 08:46 | 2.75323 | 101.71540 | 83 ft | 12 kts | 327° |
| 2026-05-08 08:46 | 2.75383 | 101.71491 | 83 ft | 10 kts | 302° |
| 2026-05-08 08:46 | 2.75367 | 101.71423 | 83 ft | 11 kts | 237° |
| 2026-05-08 08:47 | 2.75320 | 101.71349 | 83 ft | 13 kts | 238° |
| 2026-05-08 08:47 | 2.75264 | 101.71270 | 83 ft | 14 kts | 235° |
| 2026-05-08 08:47 | 2.75203 | 101.71182 | 83 ft | 15 kts | 237° |
| 2026-05-08 08:47 | 2.75140 | 101.71085 | 83 ft | 17 kts | 234° |
| 2026-05-08 08:48 | 2.75070 | 101.70985 | 83 ft | 18 kts | 236° |
| 2026-05-08 08:48 | 2.74998 | 101.70877 | 83 ft | 18 kts | 236° |
| 2026-05-08 08:48 | 2.74923 | 101.70766 | 83 ft | 19 kts | 236° |
| 2026-05-08 08:48 | 2.74848 | 101.70658 | 83 ft | 19 kts | 236° |
| 2026-05-08 08:49 | 2.74772 | 101.70545 | 83 ft | 19 kts | 236° |
| 2026-05-08 08:49 | 2.74695 | 101.70430 | 83 ft | 20 kts | 237° |
| 2026-05-08 08:49 | 2.74614 | 101.70312 | 83 ft | 19 kts | 236° |
| 2026-05-08 08:49 | 2.74537 | 101.70200 | 83 ft | 19 kts | 237° |
| 2026-05-08 08:50 | 2.74463 | 101.70089 | 83 ft | 18 kts | 235° |
| 2026-05-08 08:50 | 2.74411 | 101.70007 | 83 ft | 9 kts | 255° |
| 2026-05-08 08:50 | 2.74439 | 101.69949 | 83 ft | 9 kts | 305° |
| 2026-05-08 08:50 | 2.74439 | 101.69889 | 83 ft | 6 kts | 244° |
| 2026-05-08 08:51 | 2.74420 | 101.69857 | 83 ft | 6 kts | 239° |
| 2026-05-08 08:51 | 2.74395 | 101.69817 | 83 ft | 7 kts | 233° |
| 2026-05-08 08:51 | 2.74352 | 101.69794 | 83 ft | 7 kts | 178° |
| 2026-05-08 08:51 | 2.74322 | 101.69804 | 83 ft | 0 kts | 149° |
| 2026-05-08 08:52 | 2.74321 | 101.69804 | 83 ft | 0 kts | 149° |
| 2026-05-08 08:52 | 2.74289 | 101.69823 | 83 ft | 24 kts | 147° |
| 2026-05-08 08:52 | 2.73959 | 101.70046 | 83 ft | 86 kts | 145° |
| 2026-05-08 08:53 | 2.73309 | 101.70481 | 83 ft | 138 kts | 145° |
| 2026-05-08 08:53 | 2.72365 | 101.71113 | 84 ft | 182 kts | 145° |
| 2026-05-08 08:53 | 2.71255 | 101.71848 | 344 ft | 198 kts | 146° |
| 2026-05-08 08:53 | 2.70099 | 101.72593 | 941 ft | 198 kts | 146° |
| 2026-05-08 08:54 | 2.68975 | 101.73342 | 1653 ft | 192 kts | 146° |
| 2026-05-08 08:54 | 2.67858 | 101.74095 | 2084 ft | 198 kts | 147° |
| 2026-05-08 08:54 | 2.66671 | 101.74893 | 2340 ft | 213 kts | 147° |
| 2026-05-08 08:54 | 2.65392 | 101.75748 | 2614 ft | 228 kts | 147° |
| 2026-05-08 08:55 | 2.64013 | 101.76668 | 2897 ft | 244 kts | 147° |
| 2026-05-08 08:55 | 2.62547 | 101.77648 | 3184 ft | 260 kts | 147° |
| 2026-05-08 08:55 | 2.61008 | 101.78678 | 3629 ft | 269 kts | 146° |
| 2026-05-08 08:55 | 2.59428 | 101.79734 | 4221 ft | 271 kts | 146° |
| 2026-05-08 08:56 | 2.57855 | 101.80786 | 4767 ft | 275 kts | 146° |
| 2026-05-08 08:56 | 2.56249 | 101.81835 | 5292 ft | 279 kts | 150° |
| 2026-05-08 08:56 | 2.54367 | 101.82349 | 5787 ft | 283 kts | 182° |
| 2026-05-08 08:56 | 2.52473 | 101.81883 | 6321 ft | 283 kts | 210° |
| 2026-05-08 08:57 | 2.50993 | 101.80581 | 6825 ft | 284 kts | 236° |
| 2026-05-08 08:57 | 2.49910 | 101.78925 | 7294 ft | 287 kts | 238° |
| 2026-05-08 08:57 | 2.48819 | 101.77238 | 7750 ft | 292 kts | 238° |
| 2026-05-08 08:57 | 2.47753 | 101.75517 | 8235 ft | 294 kts | 247° |
| 2026-05-08 08:58 | 2.47352 | 101.73523 | 8700 ft | 294 kts | 276° |
| 2026-05-08 08:58 | 2.47890 | 101.71582 | 9174 ft | 292 kts | 301° |
| 2026-05-08 08:58 | 2.49217 | 101.70059 | 9626 ft | 292 kts | 326° |
| 2026-05-08 08:58 | 2.50934 | 101.68933 | 10100 ft | 294 kts | 328° |
| 2026-05-08 08:59 | 2.52675 | 101.67794 | 10383 ft | 304 kts | 328° |
| 2026-05-08 08:59 | 2.54477 | 101.66605 | 10596 ft | 317 kts | 328° |
| 2026-05-08 08:59 | 2.56363 | 101.65359 | 10819 ft | 329 kts | 328° |
| 2026-05-08 08:59 | 2.58306 | 101.64075 | 11035 ft | 341 kts | 328° |
| 2026-05-08 09:00 | 2.60314 | 101.62751 | 11240 ft | 353 kts | 328° |
| 2026-05-08 09:00 | 2.62398 | 101.61329 | 11440 ft | 366 kts | 324° |
| 2026-05-08 09:00 | 2.64388 | 101.59684 | 11632 ft | 378 kts | 319° |
| 2026-05-08 09:00 | 2.66279 | 101.57755 | 11880 ft | 389 kts | 314° |
| 2026-05-08 09:01 | 2.68081 | 101.55718 | 12310 ft | 393 kts | 312° |
| 2026-05-08 09:01 | 2.69860 | 101.53670 | 12760 ft | 395 kts | 312° |
| 2026-05-08 09:01 | 2.71669 | 101.51588 | 13204 ft | 398 kts | 312° |
| 2026-05-08 09:01 | 2.73511 | 101.49471 | 13627 ft | 401 kts | 312° |
| 2026-05-08 09:02 | 2.75360 | 101.47353 | 14021 ft | 405 kts | 313° |
| 2026-05-08 09:02 | 2.77219 | 101.45225 | 14424 ft | 409 kts | 313° |
| 2026-05-08 09:02 | 2.79107 | 101.43070 | 14821 ft | 412 kts | 313° |
| 2026-05-08 09:02 | 2.81002 | 101.40908 | 15213 ft | 415 kts | 313° |
| 2026-05-08 09:03 | 2.82898 | 101.38699 | 15588 ft | 419 kts | 311° |
| 2026-05-08 09:03 | 2.84690 | 101.36374 | 15968 ft | 423 kts | 307° |
| 2026-05-08 09:03 | 2.86348 | 101.33923 | 16327 ft | 427 kts | 304° |
| 2026-05-08 09:03 | 2.87899 | 101.31391 | 16682 ft | 431 kts | 303° |
| 2026-05-08 09:04 | 2.89451 | 101.28809 | 17051 ft | 434 kts | 303° |
| 2026-05-08 09:04 | 2.91020 | 101.26194 | 17404 ft | 437 kts | 303° |
| 2026-05-08 09:04 | 2.92580 | 101.23600 | 17747 ft | 440 kts | 303° |
| 2026-05-08 09:04 | 2.94166 | 101.20973 | 18111 ft | 443 kts | 303° |
| 2026-05-08 09:05 | 2.95776 | 101.18308 | 18484 ft | 445 kts | 303° |
| 2026-05-08 09:05 | 2.97370 | 101.15672 | 18839 ft | 447 kts | 303° |
| 2026-05-08 09:05 | 2.99084 | 101.13072 | 19193 ft | 447 kts | 310° |
| 2026-05-08 09:05 | 3.01245 | 101.10799 | 19538 ft | 446 kts | 321° |
| 2026-05-08 09:06 | 3.03746 | 101.08972 | 19878 ft | 445 kts | 331° |
| 2026-05-08 09:06 | 3.06435 | 101.07438 | 20208 ft | 446 kts | 333° |
| 2026-05-08 09:06 | 3.09176 | 101.05933 | 20516 ft | 448 kts | 333° |
| 2026-05-08 09:06 | 3.11897 | 101.04433 | 20808 ft | 451 kts | 333° |
| 2026-05-08 09:07 | 3.14676 | 101.02888 | 21112 ft | 453 kts | 333° |
| 2026-05-08 09:07 | 3.17428 | 101.01343 | 21403 ft | 455 kts | 333° |
| 2026-05-08 09:07 | 3.20193 | 100.99733 | 21675 ft | 458 kts | 328° |
| 2026-05-08 09:07 | 3.22545 | 100.97557 | 21903 ft | 466 kts | 309° |
| 2026-05-08 09:08 | 3.24172 | 100.94785 | 22204 ft | 470 kts | 293° |
| 2026-05-08 09:08 | 3.25075 | 100.91616 | 22506 ft | 472 kts | 284° |
| 2026-05-08 09:08 | 3.25806 | 100.88409 | 22779 ft | 474 kts | 284° |
| 2026-05-08 09:08 | 3.26543 | 100.85195 | 23031 ft | 476 kts | 284° |
| 2026-05-08 09:09 | 3.27297 | 100.81960 | 23280 ft | 478 kts | 284° |
| 2026-05-08 09:09 | 3.28071 | 100.78693 | 23556 ft | 480 kts | 284° |
| 2026-05-08 09:09 | 3.28841 | 100.75468 | 23823 ft | 481 kts | 284° |
| 2026-05-08 09:09 | 3.29627 | 100.72197 | 24068 ft | 483 kts | 284° |
| 2026-05-08 09:10 | 3.30413 | 100.68935 | 24303 ft | 485 kts | 284° |
| 2026-05-08 09:10 | 3.31214 | 100.65611 | 24552 ft | 487 kts | 284° |
| 2026-05-08 09:10 | 3.32005 | 100.62332 | 24798 ft | 489 kts | 284° |
| 2026-05-08 09:10 | 3.32798 | 100.59040 | 25035 ft | 490 kts | 284° |
| 2026-05-08 09:11 | 3.33600 | 100.55711 | 25261 ft | 492 kts | 284° |
| 2026-05-08 09:11 | 3.34399 | 100.52395 | 25484 ft | 494 kts | 284° |
| 2026-05-08 09:11 | 3.35213 | 100.49013 | 25716 ft | 495 kts | 284° |
| 2026-05-08 09:11 | 3.36015 | 100.45679 | 25933 ft | 497 kts | 284° |
| 2026-05-08 09:12 | 3.36826 | 100.42303 | 26162 ft | 498 kts | 284° |
| 2026-05-08 09:12 | 3.37642 | 100.38911 | 26407 ft | 499 kts | 284° |
| 2026-05-08 09:12 | 3.38452 | 100.35545 | 26638 ft | 500 kts | 284° |
| 2026-05-08 09:12 | 3.39322 | 100.32204 | 26826 ft | 501 kts | 287° |
| 2026-05-08 09:13 | 3.40446 | 100.28884 | 27019 ft | 502 kts | 291° |
| 2026-05-08 09:13 | 3.41819 | 100.25659 | 27248 ft | 502 kts | 296° |
| 2026-05-08 09:13 | 3.43372 | 100.22560 | 27529 ft | 501 kts | 298° |
| 2026-05-08 09:13 | 3.44992 | 100.19436 | 27837 ft | 500 kts | 298° |
| 2026-05-08 09:14 | 3.46589 | 100.16375 | 28117 ft | 499 kts | 298° |
| 2026-05-08 09:14 | 3.48202 | 100.13277 | 28388 ft | 499 kts | 298° |
| 2026-05-08 09:14 | 3.49800 | 100.10203 | 28670 ft | 498 kts | 298° |
| 2026-05-08 09:14 | 3.51393 | 100.07127 | 28940 ft | 498 kts | 298° |
| 2026-05-08 09:15 | 3.52989 | 100.04041 | 29196 ft | 498 kts | 298° |
| 2026-05-08 09:15 | 3.54567 | 100.00985 | 29493 ft | 497 kts | 298° |
| 2026-05-08 09:15 | 3.56155 | 99.97912 | 29781 ft | 496 kts | 298° |
| 2026-05-08 09:15 | 3.57734 | 99.94852 | 30058 ft | 495 kts | 298° |
| 2026-05-08 09:16 | 3.59315 | 99.91787 | 30342 ft | 494 kts | 297° |
| 2026-05-08 09:16 | 3.60885 | 99.88744 | 30620 ft | 493 kts | 297° |
| 2026-05-08 09:16 | 3.62472 | 99.85667 | 30881 ft | 492 kts | 297° |
| 2026-05-08 09:16 | 3.64020 | 99.82664 | 31124 ft | 492 kts | 297° |
| 2026-05-08 09:17 | 3.65601 | 99.79595 | 31350 ft | 492 kts | 297° |
| 2026-05-08 09:17 | 3.67166 | 99.76560 | 31571 ft | 492 kts | 297° |
| 2026-05-08 09:17 | 3.68736 | 99.73515 | 31802 ft | 492 kts | 297° |
| 2026-05-08 09:17 | 3.70317 | 99.70450 | 32055 ft | 491 kts | 297° |
| 2026-05-08 09:18 | 3.71865 | 99.67447 | 32310 ft | 490 kts | 297° |
| 2026-05-08 09:18 | 3.73431 | 99.64408 | 32583 ft | 489 kts | 297° |
| 2026-05-08 09:18 | 3.75004 | 99.61354 | 32853 ft | 489 kts | 297° |
| 2026-05-08 09:18 | 3.76541 | 99.58371 | 33146 ft | 488 kts | 297° |
| 2026-05-08 09:19 | 3.78096 | 99.55353 | 33458 ft | 486 kts | 297° |
| 2026-05-08 09:19 | 3.79643 | 99.52350 | 33770 ft | 485 kts | 297° |
| 2026-05-08 09:19 | 3.81205 | 99.49315 | 34072 ft | 484 kts | 297° |
| 2026-05-08 09:19 | 3.82734 | 99.46344 | 34312 ft | 484 kts | 297° |
| 2026-05-08 09:20 | 3.84275 | 99.43353 | 34507 ft | 485 kts | 297° |
| 2026-05-08 09:20 | 3.85825 | 99.40344 | 34696 ft | 486 kts | 297° |
| 2026-05-08 09:20 | 3.87363 | 99.37357 | 34917 ft | 486 kts | 297° |
| 2026-05-08 09:20 | 3.88937 | 99.34299 | 35148 ft | 486 kts | 297° |
| 2026-05-08 09:21 | 3.90484 | 99.31293 | 35341 ft | 486 kts | 297° |
| 2026-05-08 09:21 | 3.92022 | 99.28304 | 35503 ft | 487 kts | 297° |
| 2026-05-08 09:22 | 4.01396 | 99.10089 | 35794 ft | 489 kts | 296° |
| 2026-05-08 09:23 | 4.02950 | 99.07066 | 35790 ft | 489 kts | 297° |
| 2026-05-08 09:23 | 4.06069 | 99.01000 | 35782 ft | 488 kts | 297° |
| 2026-05-08 09:24 | 4.09166 | 98.94974 | 35784 ft | 488 kts | 297° |
| 2026-05-08 09:24 | 4.12275 | 98.88921 | 35786 ft | 489 kts | 297° |
| 2026-05-08 09:25 | 4.15398 | 98.82845 | 35787 ft | 490 kts | 297° |
| 2026-05-08 09:25 | 4.18496 | 98.76810 | 35788 ft | 488 kts | 297° |
| 2026-05-08 09:26 | 4.21605 | 98.70759 | 35789 ft | 489 kts | 297° |
| 2026-05-08 09:26 | 4.24714 | 98.64706 | 35790 ft | 488 kts | 297° |
| 2026-05-08 09:27 | 4.27830 | 98.58636 | 35792 ft | 487 kts | 297° |
| 2026-05-08 09:27 | 4.30919 | 98.52615 | 35793 ft | 486 kts | 298° |
| 2026-05-08 09:28 | 4.33778 | 98.46456 | 35797 ft | 486 kts | 291° |
| 2026-05-08 09:28 | 4.36089 | 98.40120 | 35799 ft | 485 kts | 290° |
| 2026-05-08 09:29 | 4.38384 | 98.33768 | 35799 ft | 484 kts | 291° |
| 2026-05-08 09:29 | 4.40709 | 98.27425 | 35805 ft | 483 kts | 291° |
| 2026-05-08 09:30 | 4.43031 | 98.21133 | 35806 ft | 483 kts | 291° |
| 2026-05-08 09:30 | 4.45361 | 98.14830 | 35809 ft | 482 kts | 291° |
| 2026-05-08 09:31 | 4.47694 | 98.08522 | 35810 ft | 481 kts | 291° |
| 2026-05-08 09:31 | 4.50016 | 98.02245 | 35810 ft | 481 kts | 291° |
| 2026-05-08 09:32 | 4.52338 | 97.95962 | 35814 ft | 480 kts | 291° |
| 2026-05-08 09:32 | 4.54658 | 97.89687 | 35814 ft | 480 kts | 291° |
| 2026-05-08 09:33 | 4.56973 | 97.83419 | 35823 ft | 481 kts | 291° |
| 2026-05-08 09:33 | 4.59306 | 97.77106 | 35823 ft | 482 kts | 291° |
| 2026-05-08 09:34 | 4.61634 | 97.70802 | 35828 ft | 481 kts | 291° |
| 2026-05-08 09:34 | 4.63952 | 97.64521 | 35838 ft | 482 kts | 291° |
| 2026-05-08 09:35 | 4.66275 | 97.58227 | 35841 ft | 482 kts | 291° |
| 2026-05-08 09:35 | 4.68599 | 97.51926 | 35846 ft | 482 kts | 291° |
| 2026-05-08 09:36 | 4.70917 | 97.45644 | 35845 ft | 482 kts | 291° |
| 2026-05-08 09:36 | 4.73245 | 97.39333 | 35855 ft | 482 kts | 291° |
| 2026-05-08 09:37 | 4.75569 | 97.33025 | 35859 ft | 483 kts | 291° |
| 2026-05-08 09:37 | 4.77905 | 97.26686 | 35869 ft | 484 kts | 291° |
| 2026-05-08 09:38 | 4.80229 | 97.20377 | 35876 ft | 483 kts | 291° |
| 2026-05-08 09:38 | 4.82559 | 97.14049 | 35895 ft | 483 kts | 291° |
| 2026-05-08 09:39 | 4.84877 | 97.07752 | 35916 ft | 483 kts | 291° |
| 2026-05-08 09:39 | 4.87202 | 97.01434 | 35934 ft | 483 kts | 291° |
| 2026-05-08 09:40 | 4.89523 | 96.95125 | 35938 ft | 483 kts | 290° |
| 2026-05-08 09:40 | 4.91852 | 96.88792 | 35932 ft | 483 kts | 291° |
| 2026-05-08 09:41 | 4.94172 | 96.82479 | 35928 ft | 484 kts | 290° |
| 2026-05-08 09:41 | 4.96495 | 96.76157 | 35925 ft | 484 kts | 291° |
| 2026-05-08 09:42 | 4.98829 | 96.69806 | 35918 ft | 484 kts | 291° |
| 2026-05-08 09:42 | 5.01158 | 96.63463 | 35914 ft | 484 kts | 291° |
| 2026-05-08 09:43 | 5.03486 | 96.57124 | 35911 ft | 484 kts | 291° |
| 2026-05-08 09:43 | 5.05819 | 96.50768 | 35910 ft | 485 kts | 291° |
| 2026-05-08 09:44 | 5.08137 | 96.44445 | 35909 ft | 486 kts | 291° |
| 2026-05-08 09:44 | 5.10473 | 96.38078 | 35915 ft | 486 kts | 291° |
| 2026-05-08 09:45 | 5.12815 | 96.31688 | 35908 ft | 486 kts | 291° |
| 2026-05-08 09:45 | 5.15149 | 96.25321 | 35908 ft | 486 kts | 291° |
| 2026-05-08 09:46 | 5.17479 | 96.18961 | 35898 ft | 486 kts | 291° |
| 2026-05-08 09:46 | 5.19808 | 96.12605 | 35880 ft | 486 kts | 291° |
| 2026-05-08 09:47 | 5.22145 | 96.06220 | 35861 ft | 487 kts | 291° |
| 2026-05-08 09:47 | 5.24488 | 95.99819 | 35846 ft | 486 kts | 291° |
| 2026-05-08 09:48 | 5.26812 | 95.93466 | 35842 ft | 487 kts | 291° |
| 2026-05-08 09:48 | 5.29149 | 95.87075 | 35853 ft | 487 kts | 291° |
| 2026-05-08 09:49 | 5.31485 | 95.80687 | 35864 ft | 487 kts | 291° |
| 2026-05-08 09:49 | 5.33823 | 95.74293 | 35877 ft | 487 kts | 291° |
| 2026-05-08 09:50 | 5.36136 | 95.67961 | 35880 ft | 487 kts | 291° |
| 2026-05-08 09:50 | 5.38477 | 95.61550 | 35887 ft | 487 kts | 291° |
| 2026-05-08 09:51 | 5.40801 | 95.55187 | 35891 ft | 487 kts | 291° |
| 2026-05-08 09:51 | 5.43134 | 95.48795 | 35887 ft | 487 kts | 291° |
| 2026-05-08 09:52 | 5.45453 | 95.42439 | 35868 ft | 487 kts | 291° |
| 2026-05-08 09:52 | 5.47795 | 95.36014 | 35847 ft | 487 kts | 291° |
| 2026-05-08 09:53 | 5.50109 | 95.29665 | 35831 ft | 488 kts | 291° |
| 2026-05-08 09:53 | 5.52442 | 95.23264 | 35822 ft | 487 kts | 291° |
| 2026-05-08 09:54 | 5.54771 | 95.16870 | 35815 ft | 487 kts | 291° |
| 2026-05-08 09:54 | 5.57107 | 95.10456 | 35809 ft | 491 kts | 291° |
| 2026-05-08 09:55 | 5.59451 | 95.04020 | 35806 ft | 499 kts | 291° |
| 2026-05-08 09:55 | 5.61861 | 94.97405 | 35801 ft | 506 kts | 291° |
| 2026-05-08 09:56 | 5.64284 | 94.90743 | 35800 ft | 510 kts | 291° |
| 2026-05-08 09:56 | 5.66711 | 94.84066 | 35800 ft | 510 kts | 291° |
| 2026-05-08 09:57 | 5.70359 | 94.74030 | 35801 ft | 509 kts | 291° |
| 2026-05-08 09:57 | 5.72778 | 94.67369 | 35804 ft | 509 kts | 291° |
| 2026-05-08 09:58 | 5.75209 | 94.60674 | 35810 ft | 510 kts | 291° |
| 2026-05-08 09:58 | 5.77629 | 94.54003 | 35812 ft | 509 kts | 291° |
| 2026-05-08 09:59 | 5.80057 | 94.47308 | 35808 ft | 509 kts | 291° |
| 2026-05-08 09:59 | 5.82484 | 94.40617 | 35808 ft | 509 kts | 291° |
| 2026-05-08 10:00 | 5.84910 | 94.33922 | 35809 ft | 508 kts | 291° |
| 2026-05-08 10:00 | 5.87320 | 94.27268 | 35805 ft | 508 kts | 291° |
| 2026-05-08 10:01 | 5.89732 | 94.20607 | 35801 ft | 508 kts | 291° |
| 2026-05-08 10:01 | 5.92151 | 94.13923 | 35806 ft | 508 kts | 292° |
| 2026-05-08 10:02 | 5.94564 | 94.07265 | 35816 ft | 506 kts | 291° |
| 2026-05-08 10:02 | 5.96960 | 94.00640 | 35815 ft | 507 kts | 291° |
| 2026-05-08 10:03 | 5.99364 | 93.93992 | 35812 ft | 506 kts | 291° |
| 2026-05-08 10:03 | 6.01778 | 93.87305 | 35814 ft | 507 kts | 291° |
| 2026-05-08 10:04 | 6.04182 | 93.80659 | 35818 ft | 509 kts | 291° |
| 2026-05-08 10:04 | 6.06604 | 93.73949 | 35815 ft | 509 kts | 291° |
| 2026-05-08 10:05 | 6.09017 | 93.67266 | 35814 ft | 509 kts | 291° |
| 2026-05-08 10:05 | 6.11422 | 93.60600 | 35811 ft | 510 kts | 291° |
| 2026-05-08 10:06 | 6.13839 | 93.53904 | 35809 ft | 510 kts | 291° |
| 2026-05-08 10:06 | 6.16260 | 93.47187 | 35808 ft | 511 kts | 291° |
| 2026-05-08 10:07 | 6.18685 | 93.40454 | 35808 ft | 511 kts | 291° |
| 2026-05-08 10:07 | 6.21097 | 93.33759 | 35806 ft | 512 kts | 291° |
| 2026-05-08 10:08 | 6.23528 | 93.27007 | 35802 ft | 512 kts | 291° |
| 2026-05-08 10:08 | 6.25946 | 93.20290 | 35800 ft | 513 kts | 291° |
| 2026-05-08 10:09 | 6.28376 | 93.13537 | 35799 ft | 514 kts | 291° |
| 2026-05-08 10:09 | 6.30802 | 93.06788 | 35799 ft | 515 kts | 291° |
| 2026-05-08 10:10 | 6.33234 | 93.00019 | 35799 ft | 514 kts | 291° |
| 2026-05-08 10:10 | 6.35648 | 92.93296 | 35801 ft | 515 kts | 291° |
| 2026-05-08 10:11 | 6.38092 | 92.86494 | 35800 ft | 515 kts | 291° |
| 2026-05-08 10:11 | 6.40522 | 92.79725 | 35800 ft | 515 kts | 291° |
| 2026-05-08 10:12 | 6.42939 | 92.72989 | 35801 ft | 515 kts | 290° |
| 2026-05-08 10:12 | 6.45377 | 92.66187 | 35799 ft | 516 kts | 290° |
| 2026-05-08 10:13 | 6.47804 | 92.59412 | 35799 ft | 516 kts | 290° |
| 2026-05-08 10:13 | 6.50235 | 92.52627 | 35802 ft | 515 kts | 290° |
| 2026-05-08 10:14 | 6.52662 | 92.45850 | 35807 ft | 516 kts | 290° |
| 2026-05-08 10:14 | 6.55081 | 92.39088 | 35807 ft | 516 kts | 290° |
| 2026-05-08 10:15 | 6.57511 | 92.32295 | 35810 ft | 516 kts | 290° |
| 2026-05-08 10:15 | 6.59943 | 92.25494 | 35812 ft | 517 kts | 290° |
| 2026-05-08 10:16 | 6.62373 | 92.18698 | 35810 ft | 517 kts | 290° |
| 2026-05-08 10:16 | 6.64807 | 92.11880 | 35809 ft | 516 kts | 290° |
| 2026-05-08 10:17 | 6.67228 | 92.05099 | 35803 ft | 517 kts | 290° |
| 2026-05-08 10:17 | 6.69654 | 91.98302 | 35799 ft | 516 kts | 290° |
| 2026-05-08 10:18 | 6.72068 | 91.91531 | 35799 ft | 516 kts | 290° |
| 2026-05-08 10:18 | 6.74491 | 91.84736 | 35798 ft | 517 kts | 290° |
| 2026-05-08 10:19 | 6.76926 | 91.77904 | 35798 ft | 516 kts | 290° |
| 2026-05-08 10:20 | 6.80553 | 91.67722 | 35798 ft | 516 kts | 290° |
| 2026-05-08 10:20 | 6.82973 | 91.60925 | 35798 ft | 517 kts | 290° |
| 2026-05-08 10:21 | 6.85391 | 91.54126 | 35798 ft | 516 kts | 290° |
| 2026-05-08 10:21 | 6.87807 | 91.47330 | 35790 ft | 516 kts | 290° |
| 2026-05-08 10:22 | 6.90212 | 91.40553 | 35787 ft | 514 kts | 290° |
| 2026-05-08 10:22 | 6.92615 | 91.33785 | 35794 ft | 512 kts | 290° |
| 2026-05-08 10:23 | 6.95010 | 91.27044 | 35797 ft | 512 kts | 290° |
| 2026-05-08 10:23 | 6.97399 | 91.20315 | 35798 ft | 512 kts | 290° |
| 2026-05-08 10:24 | 6.99800 | 91.13547 | 35798 ft | 511 kts | 290° |
| 2026-05-08 10:24 | 7.02179 | 91.06833 | 35799 ft | 510 kts | 290° |
| 2026-05-08 10:25 | 7.04570 | 91.00085 | 35799 ft | 511 kts | 290° |
| 2026-05-08 10:25 | 7.06958 | 90.93345 | 35797 ft | 512 kts | 290° |
| 2026-05-08 10:26 | 7.09340 | 90.86613 | 35788 ft | 512 kts | 290° |
| 2026-05-08 10:26 | 7.11729 | 90.79861 | 35780 ft | 511 kts | 290° |
| 2026-05-08 10:27 | 7.14107 | 90.73134 | 35778 ft | 511 kts | 290° |
| 2026-05-08 10:27 | 7.16479 | 90.66425 | 35778 ft | 510 kts | 290° |
| 2026-05-08 10:28 | 7.18850 | 90.59711 | 35778 ft | 511 kts | 290° |
| 2026-05-08 10:28 | 7.21223 | 90.52988 | 35778 ft | 511 kts | 290° |
| 2026-05-08 10:29 | 7.23619 | 90.46200 | 35778 ft | 511 kts | 290° |
| 2026-05-08 10:29 | 7.25989 | 90.39480 | 35779 ft | 511 kts | 290° |
| 2026-05-08 10:30 | 7.28373 | 90.32713 | 35778 ft | 511 kts | 290° |
| 2026-05-08 10:30 | 7.30743 | 90.25990 | 35784 ft | 511 kts | 290° |
| 2026-05-08 10:31 | 7.33111 | 90.19263 | 35791 ft | 512 kts | 290° |
| 2026-05-08 10:31 | 7.35499 | 90.12479 | 35796 ft | 512 kts | 290° |
| 2026-05-08 10:32 | 7.37861 | 90.05765 | 35798 ft | 512 kts | 290° |
| 2026-05-08 10:32 | 7.40247 | 89.98978 | 35797 ft | 512 kts | 290° |
| 2026-05-08 10:33 | 7.42607 | 89.92258 | 35799 ft | 512 kts | 290° |
| 2026-05-08 10:33 | 7.44991 | 89.85470 | 35798 ft | 512 kts | 290° |
| 2026-05-08 10:34 | 7.47365 | 89.78706 | 35800 ft | 512 kts | 290° |
| 2026-05-08 10:34 | 7.49732 | 89.71961 | 35798 ft | 512 kts | 290° |
| 2026-05-08 10:35 | 7.52106 | 89.65189 | 35799 ft | 512 kts | 290° |
| 2026-05-08 10:35 | 7.54476 | 89.58424 | 35800 ft | 512 kts | 290° |
| 2026-05-08 10:36 | 7.56834 | 89.51691 | 35799 ft | 512 kts | 290° |
| 2026-05-08 10:36 | 7.59207 | 89.44913 | 35797 ft | 513 kts | 290° |
| 2026-05-08 10:37 | 7.61578 | 89.38135 | 35793 ft | 512 kts | 290° |
| 2026-05-08 10:37 | 7.63939 | 89.31383 | 35786 ft | 512 kts | 290° |
| 2026-05-08 10:38 | 7.66296 | 89.24639 | 35785 ft | 513 kts | 290° |
| 2026-05-08 10:38 | 7.68666 | 89.17854 | 35782 ft | 513 kts | 290° |
| 2026-05-08 10:39 | 7.71023 | 89.11099 | 35779 ft | 513 kts | 290° |
| 2026-05-08 10:39 | 7.73394 | 89.04303 | 35778 ft | 513 kts | 290° |
| 2026-05-08 10:40 | 7.75755 | 88.97530 | 35778 ft | 513 kts | 290° |
| 2026-05-08 10:40 | 7.78109 | 88.90777 | 35779 ft | 513 kts | 290° |
| 2026-05-08 10:41 | 7.80475 | 88.83987 | 35779 ft | 512 kts | 290° |
| 2026-05-08 10:41 | 7.82847 | 88.77175 | 35779 ft | 513 kts | 290° |
| 2026-05-08 10:42 | 7.85208 | 88.70386 | 35778 ft | 512 kts | 290° |
| 2026-05-08 10:42 | 7.87575 | 88.63576 | 35782 ft | 512 kts | 290° |
| 2026-05-08 10:43 | 7.89919 | 88.56829 | 35785 ft | 512 kts | 290° |
| 2026-05-08 10:43 | 7.92265 | 88.50075 | 35790 ft | 512 kts | 290° |
| 2026-05-08 10:44 | 7.94624 | 88.43278 | 35797 ft | 512 kts | 290° |
| 2026-05-08 10:44 | 7.96977 | 88.36495 | 35801 ft | 512 kts | 290° |
| 2026-05-08 10:45 | 7.99333 | 88.29700 | 35799 ft | 512 kts | 290° |
| 2026-05-08 10:45 | 8.01671 | 88.22951 | 35802 ft | 512 kts | 290° |
| 2026-05-08 10:46 | 8.04029 | 88.16141 | 35799 ft | 512 kts | 290° |
| 2026-05-08 10:46 | 8.06386 | 88.09329 | 35800 ft | 511 kts | 290° |
| 2026-05-08 10:47 | 8.08731 | 88.02554 | 35801 ft | 512 kts | 290° |
| 2026-05-08 10:47 | 8.11074 | 87.95775 | 35796 ft | 512 kts | 290° |
| 2026-05-08 10:48 | 8.13409 | 87.89011 | 35786 ft | 512 kts | 290° |
| 2026-05-08 10:48 | 8.15772 | 87.82163 | 35781 ft | 512 kts | 290° |
| 2026-05-08 10:49 | 8.18119 | 87.75363 | 35778 ft | 512 kts | 290° |
| 2026-05-08 10:49 | 8.20467 | 87.68555 | 35779 ft | 511 kts | 290° |
| 2026-05-08 10:50 | 8.22807 | 87.61766 | 35778 ft | 511 kts | 289° |
| 2026-05-08 10:50 | 8.25138 | 87.54997 | 35778 ft | 512 kts | 289° |
| 2026-05-08 10:51 | 8.27471 | 87.48216 | 35779 ft | 512 kts | 290° |
| 2026-05-08 10:51 | 8.29807 | 87.41425 | 35779 ft | 512 kts | 290° |
| 2026-05-08 10:52 | 8.32128 | 87.34677 | 35778 ft | 512 kts | 289° |
| 2026-05-08 10:52 | 8.34463 | 87.27879 | 35779 ft | 512 kts | 289° |
| 2026-05-08 10:53 | 8.36780 | 87.21130 | 35778 ft | 511 kts | 289° |
| 2026-05-08 10:53 | 8.39108 | 87.14346 | 35780 ft | 511 kts | 289° |
| 2026-05-08 10:54 | 8.41429 | 87.07575 | 35784 ft | 511 kts | 289° |
| 2026-05-08 10:54 | 8.43749 | 87.00809 | 35785 ft | 511 kts | 289° |
| 2026-05-08 10:55 | 8.46079 | 86.94005 | 35785 ft | 511 kts | 289° |
| 2026-05-08 10:55 | 8.48405 | 86.87211 | 35788 ft | 512 kts | 289° |
| 2026-05-08 10:56 | 8.50724 | 86.80434 | 35792 ft | 511 kts | 289° |
| 2026-05-08 10:56 | 8.53040 | 86.73655 | 35797 ft | 512 kts | 289° |
| 2026-05-08 10:57 | 8.55362 | 86.66861 | 35795 ft | 512 kts | 289° |
| 2026-05-08 10:57 | 8.58826 | 86.56714 | 35792 ft | 512 kts | 289° |
| 2026-05-08 10:58 | 8.61104 | 86.50036 | 35786 ft | 511 kts | 289° |
| 2026-05-08 10:58 | 8.63418 | 86.43247 | 35782 ft | 512 kts | 289° |
| 2026-05-08 10:59 | 8.65738 | 86.36437 | 35778 ft | 511 kts | 289° |
| 2026-05-08 10:59 | 8.68043 | 86.29668 | 35777 ft | 512 kts | 289° |
| 2026-05-08 11:00 | 8.70352 | 86.22881 | 35777 ft | 512 kts | 289° |
| 2026-05-08 11:00 | 8.72659 | 86.16097 | 35777 ft | 512 kts | 289° |
| 2026-05-08 11:01 | 8.74974 | 86.09287 | 35777 ft | 512 kts | 289° |
| 2026-05-08 11:01 | 8.77289 | 86.02466 | 35778 ft | 512 kts | 289° |
| 2026-05-08 11:02 | 8.80733 | 85.92316 | 35778 ft | 512 kts | 289° |
| 2026-05-08 11:03 | 8.83044 | 85.85499 | 35780 ft | 511 kts | 289° |
| 2026-05-08 11:03 | 8.85351 | 85.78691 | 35779 ft | 511 kts | 289° |
| 2026-05-08 11:04 | 8.87639 | 85.71935 | 35779 ft | 512 kts | 289° |
| 2026-05-08 11:04 | 8.89949 | 85.65109 | 35780 ft | 513 kts | 289° |
| 2026-05-08 11:05 | 8.92245 | 85.58317 | 35778 ft | 513 kts | 289° |
| 2026-05-08 11:05 | 8.94550 | 85.51495 | 35780 ft | 513 kts | 289° |
| 2026-05-08 11:06 | 8.96850 | 85.44682 | 35785 ft | 512 kts | 289° |
| 2026-05-08 11:06 | 8.99155 | 85.37852 | 35790 ft | 512 kts | 289° |
| 2026-05-08 11:07 | 9.01446 | 85.31060 | 35794 ft | 513 kts | 289° |
| 2026-05-08 11:07 | 9.03750 | 85.24224 | 35796 ft | 513 kts | 289° |
| 2026-05-08 11:08 | 9.06057 | 85.17377 | 35791 ft | 513 kts | 289° |
| 2026-05-08 11:08 | 9.08344 | 85.10580 | 35785 ft | 514 kts | 289° |
| 2026-05-08 11:09 | 9.10639 | 85.03752 | 35781 ft | 513 kts | 289° |
| 2026-05-08 11:09 | 9.12948 | 84.96881 | 35777 ft | 513 kts | 289° |
| 2026-05-08 11:10 | 9.15231 | 84.90088 | 35779 ft | 513 kts | 289° |
| 2026-05-08 11:10 | 9.17537 | 84.83217 | 35779 ft | 513 kts | 289° |
| 2026-05-08 11:11 | 9.19819 | 84.76411 | 35777 ft | 513 kts | 289° |
| 2026-05-08 11:11 | 9.22115 | 84.69563 | 35778 ft | 513 kts | 289° |
| 2026-05-08 11:12 | 9.24388 | 84.62774 | 35777 ft | 513 kts | 289° |
| 2026-05-08 11:12 | 9.26674 | 84.55943 | 35778 ft | 513 kts | 289° |
| 2026-05-08 11:13 | 9.28963 | 84.49100 | 35778 ft | 512 kts | 289° |
| 2026-05-08 11:13 | 9.31235 | 84.42304 | 35777 ft | 512 kts | 289° |